Temp: 13.6°C   Hum: 83%
  Wind: 4.0mph   Dir: WNW (286°)
  Rain: 0.0mm Rate: 0.0mm/hr
  Pressure: 1007.7mb

Historic data

Bath Spa Weather Station Historical Data
Daily Summary for January 23, 2022 Units:  Both    English   Metric
Daily Weekly Monthly Yearly Custom
  High: Low: Average:
Temperature: 40.1 °F /  4.5 °C 37.8 °F /  3.2 °C 39 °F /  3.9 °C
Dew Point: 36.7 °F /  2.6 °C 33.6 °F /  0.9 °C 35 °F /  1.7 °C
Humidity: 88% 84% 85%
Wind Speed: 4.5mph /  7.2km/h - 1.3mph /  2.1km/h
Wind Gust: 10mph /  16.1km/h - -
Wind- - SW
Pressure: 30.65 in /  1037.8 hPa 30.52 in /  1033.4 hPa -
Precipitation: 0.00 in /  0 mm    
Historical Graphs
 
 
Tabular Data for January 23, 2022
Time Temperature Dew Point Pressure Wind Wind Speed Wind Gust Humidity Rainfall Rate (Hourly) solar
00:09 39.7 °F /  4.3 °C 36.5 °F /  2.5 °C 30.65in /  1037.8hPa Calm     88% 0.00in /  0mm 0 W/m2
00:14 39.7 °F /  4.3 °C 36.5 °F /  2.5 °C 30.65in /  1037.8hPa Calm     88% 0.00in /  0mm 0 W/m2
00:19 39.7 °F /  4.3 °C 36.5 °F /  2.5 °C 30.65in /  1037.8hPa Calm     88% 0.00in /  0mm 0 W/m2
00:24 39.7 °F /  4.3 °C 36.5 °F /  2.5 °C 30.65in /  1037.8hPa Calm     88% 0.00in /  0mm 0 W/m2
00:29 39.7 °F /  4.3 °C 36.5 °F /  2.5 °C 30.65in /  1037.8hPa Calm     88% 0.00in /  0mm 0 W/m2
00:34 39.7 °F /  4.3 °C 36.5 °F /  2.5 °C 30.65in /  1037.8hPa Calm     88% 0.00in /  0mm 0 W/m2
00:39 39.7 °F /  4.3 °C 36.5 °F /  2.5 °C 30.65in /  1037.8hPa Calm     88% 0.00in /  0mm 0 W/m2
00:44 39.7 °F /  4.3 °C 36.5 °F /  2.5 °C 30.65in /  1037.8hPa Calm     88% 0.00in /  0mm 0 W/m2
00:49 39.7 °F /  4.3 °C 36.5 °F /  2.5 °C 30.65in /  1037.8hPa Calm     88% 0.00in /  0mm 0 W/m2
00:54 39.7 °F /  4.3 °C 36.5 °F /  2.5 °C 30.65in /  1037.8hPa Calm     88% 0.00in /  0mm 0 W/m2
00:59 39.9 °F /  4.4 °C 36.7 °F /  2.6 °C 30.64in /  1037.5hPa Calm     88% 0.00in /  0mm 0 W/m2
01:04 39.7 °F /  4.3 °C 36.5 °F /  2.5 °C 30.64in /  1037.5hPa Calm     88% 0.00in /  0mm 0 W/m2
01:09 39.7 °F /  4.3 °C 36.5 °F /  2.5 °C 30.64in /  1037.5hPa Calm     88% 0.00in /  0mm 0 W/m2
01:14 39.7 °F /  4.3 °C 36.5 °F /  2.5 °C 30.64in /  1037.5hPa WNW 0.4mph /  0.6km/h 2mph /  3.2km/h 88% 0.00in /  0mm 0 W/m2
01:19 39.6 °F /  4.2 °C 36.4 °F /  2.4 °C 30.64in /  1037.5hPa Calm   2mph /  3.2km/h 88% 0.00in /  0mm 0 W/m2
01:24 39.7 °F /  4.3 °C 36.3 °F /  2.4 °C 30.64in /  1037.5hPa Calm     87.4% 0.00in /  0mm 0 W/m2
01:29 39.9 °F /  4.4 °C 36.3 °F /  2.4 °C 30.64in /  1037.5hPa Calm     87% 0.00in /  0mm 0 W/m2
01:34 40 °F /  4.4 °C 36.4 °F /  2.4 °C 30.64in /  1037.5hPa Calm     87% 0.00in /  0mm 0 W/m2
01:39 40 °F /  4.4 °C 36.4 °F /  2.4 °C 30.64in /  1037.5hPa Calm     87% 0.00in /  0mm 0 W/m2
01:44 40.1 °F /  4.5 °C 36.5 °F /  2.5 °C 30.64in /  1037.5hPa Calm     87% 0.00in /  0mm 0 W/m2
01:49 40 °F /  4.4 °C 36.4 °F /  2.4 °C 30.64in /  1037.5hPa Calm     86.8% 0.00in /  0mm 0 W/m2
01:54 39.9 °F /  4.4 °C 36.3 °F /  2.4 °C 30.64in /  1037.5hPa Calm     87% 0.00in /  0mm 0 W/m2
01:59 39.8 °F /  4.3 °C 36.2 °F /  2.3 °C 30.63in /  1037.1hPa Calm     87% 0.00in /  0mm 0 W/m2
02:04 39.9 °F /  4.4 °C 36.3 °F /  2.4 °C 30.63in /  1037.1hPa Calm     86.8% 0.00in /  0mm 0 W/m2
02:09 39.9 °F /  4.4 °C 36.1 °F /  2.3 °C 30.63in /  1037.1hPa Calm     86.2% 0.00in /  0mm 0 W/m2
02:14 39.9 °F /  4.4 °C 36.1 °F /  2.3 °C 30.63in /  1037.1hPa Calm     86.2% 0.00in /  0mm 0 W/m2
02:19 39.7 °F /  4.3 °C 36 °F /  2.2 °C 30.63in /  1037.1hPa Calm     86% 0.00in /  0mm 0 W/m2
02:24 39.7 °F /  4.3 °C 36.1 °F /  2.3 °C 30.63in /  1037.1hPa Calm     87% 0.00in /  0mm 0 W/m2
02:29 39.7 °F /  4.3 °C 36.1 °F /  2.3 °C 30.63in /  1037.1hPa Calm     87% 0.00in /  0mm 0 W/m2
02:34 39.7 °F /  4.3 °C 36.1 °F /  2.3 °C 30.63in /  1037.1hPa Calm     87% 0.00in /  0mm 0 W/m2
02:39 39.7 °F /  4.3 °C 36.1 °F /  2.3 °C 30.63in /  1037.1hPa Calm     87% 0.00in /  0mm 0 W/m2
02:44 39.8 °F /  4.3 °C 36.2 °F /  2.3 °C 30.63in /  1037.1hPa Calm     87% 0.00in /  0mm 0 W/m2
02:49 39.7 °F /  4.3 °C 36.1 °F /  2.3 °C 30.63in /  1037.1hPa Calm     87% 0.00in /  0mm 0 W/m2
02:54 39.7 °F /  4.3 °C 36.1 °F /  2.3 °C 30.63in /  1037.1hPa Calm     87% 0.00in /  0mm 0 W/m2
02:59 39.7 °F /  4.3 °C 36.1 °F /  2.3 °C 30.63in /  1037.1hPa WNW 0.2mph /  0.3km/h 1mph /  1.6km/h 87% 0.00in /  0mm 0 W/m2
03:04 39.6 °F /  4.2 °C 36 °F /  2.2 °C 30.63in /  1037.1hPa Calm   2mph /  3.2km/h 86.8% 0.00in /  0mm 0 W/m2
03:09 39.6 °F /  4.2 °C 35.8 °F /  2.1 °C 30.62in /  1036.8hPa Calm     86% 0.00in /  0mm 0 W/m2
03:14 39.6 °F /  4.2 °C 35.8 °F /  2.1 °C 30.62in /  1036.8hPa Calm     86% 0.00in /  0mm 0 W/m2
03:19 39.7 °F /  4.3 °C 36 °F /  2.2 °C 30.62in /  1036.8hPa Calm     86% 0.00in /  0mm 0 W/m2
03:24 39.7 °F /  4.3 °C 36 °F /  2.2 °C 30.62in /  1036.8hPa Calm     86% 0.00in /  0mm 0 W/m2
03:29 39.7 °F /  4.3 °C 36 °F /  2.2 °C 30.62in /  1036.8hPa Calm   1mph /  1.6km/h 86% 0.00in /  0mm 0 W/m2
03:34 39.7 °F /  4.3 °C 36 °F /  2.2 °C 30.62in /  1036.8hPa Calm   1mph /  1.6km/h 86% 0.00in /  0mm 0 W/m2
03:39 39.7 °F /  4.3 °C 36 °F /  2.2 °C 30.62in /  1036.8hPa Calm   1mph /  1.6km/h 86% 0.00in /  0mm 0 W/m2
03:44 39.7 °F /  4.3 °C 36 °F /  2.2 °C 30.62in /  1036.8hPa Calm   2mph /  3.2km/h 86% 0.00in /  0mm 0 W/m2
03:49 39.7 °F /  4.3 °C 36 °F /  2.2 °C 30.62in /  1036.8hPa Calm     86% 0.00in /  0mm 0 W/m2
03:54 39.7 °F /  4.3 °C 36 °F /  2.2 °C 30.62in /  1036.8hPa Calm     86% 0.00in /  0mm 0 W/m2
03:59 39.7 °F /  4.3 °C 36 °F /  2.2 °C 30.62in /  1036.8hPa Calm   1mph /  1.6km/h 86% 0.00in /  0mm 0 W/m2
04:04 39.7 °F /  4.3 °C 36 °F /  2.2 °C 30.62in /  1036.8hPa Calm     86% 0.00in /  0mm 0 W/m2
04:09 39.7 °F /  4.3 °C 35.9 °F /  2.2 °C 30.62in /  1036.8hPa Calm     85.8% 0.00in /  0mm 0 W/m2
04:14 39.7 °F /  4.3 °C 35.6 °F /  2 °C 30.62in /  1036.8hPa Calm     85% 0.00in /  0mm 0 W/m2
04:19 39.6 °F /  4.2 °C 35.5 °F /  1.9 °C 30.62in /  1036.8hPa Calm   2mph /  3.2km/h 85% 0.00in /  0mm 0 W/m2
04:24 39.6 °F /  4.2 °C 35.4 °F /  1.9 °C 30.62in /  1036.8hPa Calm   2mph /  3.2km/h 85% 0.00in /  0mm 0 W/m2
04:29 39.6 °F /  4.2 °C 35.4 °F /  1.9 °C 30.62in /  1036.8hPa Calm     85% 0.00in /  0mm 0 W/m2
04:34 39.5 °F /  4.2 °C 35.3 °F /  1.8 °C 30.62in /  1036.8hPa Calm     85% 0.00in /  0mm 0 W/m2
04:39 39.4 °F /  4.1 °C 35.2 °F /  1.8 °C 30.62in /  1036.8hPa Calm   2mph /  3.2km/h 85% 0.00in /  0mm 0 W/m2
04:44 39.4 °F /  4.1 °C 35.2 °F /  1.8 °C 30.62in /  1036.8hPa WNW 0.2mph /  0.3km/h 2mph /  3.2km/h 85% 0.00in /  0mm 0 W/m2
04:49 39.4 °F /  4.1 °C 35.2 °F /  1.8 °C 30.62in /  1036.8hPa WNW 0.8mph /  1.3km/h 2mph /  3.2km/h 85% 0.00in /  0mm 0 W/m2
04:54 39.4 °F /  4.1 °C 35.2 °F /  1.8 °C 30.62in /  1036.8hPa WNW 0.6mph /  1km/h 3mph /  4.8km/h 85% 0.00in /  0mm 0 W/m2
04:59 39.3 °F /  4.1 °C 35.1 °F /  1.7 °C 30.61in /  1036.5hPa WNW 1.5mph /  2.4km/h 6mph /  9.7km/h 85% 0.00in /  0mm 0 W/m2
05:04 39.2 °F /  4 °C 35.1 °F /  1.7 °C 30.61in /  1036.5hPa WNW 1.2mph /  1.9km/h 5mph /  8km/h 85% 0.00in /  0mm 0 W/m2
05:09 39.2 °F /  4 °C 35.1 °F /  1.7 °C 30.61in /  1036.5hPa WNW 2.6mph /  4.2km/h 5mph /  8km/h 85% 0.00in /  0mm 0 W/m2
05:14 39.2 °F /  4 °C 35.1 °F /  1.7 °C 30.61in /  1036.5hPa West 2.4mph /  3.9km/h 5mph /  8km/h 85% 0.00in /  0mm 0 W/m2
05:19 39.3 °F /  4.1 °C 34.9 °F /  1.6 °C 30.61in /  1036.5hPa Calm   3mph /  4.8km/h 84.2% 0.00in /  0mm 0 W/m2
05:24 39.3 °F /  4.1 °C 34.8 °F /  1.6 °C 30.61in /  1036.5hPa West 0.4mph /  0.6km/h 2mph /  3.2km/h 84% 0.00in /  0mm 0 W/m2
05:29 39.2 °F /  4 °C 34.7 °F /  1.5 °C 30.61in /  1036.5hPa Calm   1mph /  1.6km/h 84% 0.00in /  0mm 0 W/m2
05:34 39.2 °F /  4 °C 34.7 °F /  1.5 °C 30.61in /  1036.5hPa West 0.6mph /  1km/h 2mph /  3.2km/h 84% 0.00in /  0mm 0 W/m2
05:39 39.1 °F /  3.9 °C 34.6 °F /  1.4 °C 30.61in /  1036.5hPa West 0.6mph /  1km/h 2mph /  3.2km/h 84% 0.00in /  0mm 0 W/m2
05:44 39 °F /  3.9 °C 34.5 °F /  1.4 °C 30.61in /  1036.5hPa West 2.1mph /  3.4km/h 6mph /  9.7km/h 84% 0.00in /  0mm 0 W/m2
05:49 39 °F /  3.9 °C 34.5 °F /  1.4 °C 30.61in /  1036.5hPa West 1.4mph /  2.3km/h 5mph /  8km/h 84% 0.00in /  0mm 0 W/m2
05:54 39 °F /  3.9 °C 34.5 °F /  1.4 °C 30.60in /  1036.1hPa West 1.7mph /  2.7km/h 5mph /  8km/h 84% 0.00in /  0mm 0 W/m2
05:59 39 °F /  3.9 °C 34.5 °F /  1.4 °C 30.60in /  1036.1hPa West 0.9mph /  1.4km/h 3mph /  4.8km/h 84% 0.00in /  0mm 0 W/m2
06:04 39 °F /  3.9 °C 34.5 °F /  1.4 °C 30.60in /  1036.1hPa West 2mph /  3.2km/h 4mph /  6.4km/h 84% 0.00in /  0mm 0 W/m2
06:09 39 °F /  3.9 °C 34.5 °F /  1.4 °C 30.60in /  1036.1hPa West 2mph /  3.2km/h 4mph /  6.4km/h 84% 0.00in /  0mm 0 W/m2
06:14 39 °F /  3.9 °C 34.5 °F /  1.4 °C 30.60in /  1036.1hPa West 2.8mph /  4.5km/h 6mph /  9.7km/h 84% 0.00in /  0mm 0 W/m2
06:19 38.8 °F /  3.8 °C 34.3 °F /  1.3 °C 30.60in /  1036.1hPa West 2.4mph /  3.9km/h 4mph /  6.4km/h 84% 0.00in /  0mm 0 W/m2
06:24 38.8 °F /  3.8 °C 34.3 °F /  1.3 °C 30.60in /  1036.1hPa West 2mph /  3.2km/h 4mph /  6.4km/h 84% 0.00in /  0mm 0 W/m2
06:29 38.8 °F /  3.8 °C 34.3 °F /  1.3 °C 30.60in /  1036.1hPa West 0.4mph /  0.6km/h 3mph /  4.8km/h 84% 0.00in /  0mm 0 W/m2
06:34 38.8 °F /  3.8 °C 34.3 °F /  1.3 °C 30.60in /  1036.1hPa West 1.2mph /  1.9km/h 3mph /  4.8km/h 84% 0.00in /  0mm 0 W/m2
06:39 38.8 °F /  3.8 °C 34.3 °F /  1.3 °C 30.60in /  1036.1hPa West 1.1mph /  1.8km/h 4mph /  6.4km/h 84% 0.00in /  0mm 0 W/m2
06:44 38.7 °F /  3.7 °C 34.2 °F /  1.2 °C 30.60in /  1036.1hPa West 1.6mph /  2.6km/h 3mph /  4.8km/h 84% 0.00in /  0mm 0 W/m2
06:49 38.7 °F /  3.7 °C 34.2 °F /  1.2 °C 30.60in /  1036.1hPa West 0.2mph /  0.3km/h 2mph /  3.2km/h 84% 0.00in /  0mm 0 W/m2
06:54 38.7 °F /  3.7 °C 34.2 °F /  1.2 °C 30.60in /  1036.1hPa West 1mph /  1.6km/h 3mph /  4.8km/h 84% 0.00in /  0mm 0 W/m2
06:59 38.7 °F /  3.7 °C 34.2 °F /  1.2 °C 30.60in /  1036.1hPa West 0.2mph /  0.3km/h 2mph /  3.2km/h 84% 0.00in /  0mm 0 W/m2
07:04 38.7 °F /  3.7 °C 34.3 °F /  1.3 °C 30.61in /  1036.5hPa West 1mph /  1.6km/h 4mph /  6.4km/h 84.2% 0.00in /  0mm 0 W/m2
07:09 38.7 °F /  3.7 °C 34.5 °F /  1.4 °C 30.61in /  1036.5hPa West 2.4mph /  3.9km/h 4mph /  6.4km/h 85% 0.00in /  0mm 0 W/m2
07:14 38.6 °F /  3.7 °C 34.4 °F /  1.3 °C 30.61in /  1036.5hPa West 3.4mph /  5.5km/h 7mph /  11.3km/h 85% 0.00in /  0mm 0 W/m2
07:19 38.5 °F /  3.6 °C 34.2 °F /  1.2 °C 30.61in /  1036.5hPa West 2.4mph /  3.9km/h 7mph /  11.3km/h 84.4% 0.00in /  0mm 0 W/m2
07:24 38.4 °F /  3.6 °C 34.1 °F /  1.2 °C 30.61in /  1036.5hPa West 4.5mph /  7.2km/h 7mph /  11.3km/h 84% 0.00in /  0mm 0 W/m2
07:29 38.3 °F /  3.5 °C 34 °F /  1.1 °C 30.61in /  1036.5hPa West 0.8mph /  1.3km/h 5mph /  8km/h 84% 0.00in /  0mm 0 W/m2
07:34 38.4 °F /  3.6 °C 34.1 °F /  1.2 °C 30.62in /  1036.8hPa West 3.2mph /  5.1km/h 6mph /  9.7km/h 84% 0.00in /  0mm 0 W/m2
07:39 38.3 °F /  3.5 °C 34 °F /  1.1 °C 30.62in /  1036.8hPa West 2mph /  3.2km/h 6mph /  9.7km/h 84% 0.00in /  0mm 0 W/m2
07:44 38.3 °F /  3.5 °C 34 °F /  1.1 °C 30.61in /  1036.5hPa West 0.2mph /  0.3km/h 3mph /  4.8km/h 84% 0.00in /  0mm 0 W/m2
07:49 38.3 °F /  3.5 °C 34 °F /  1.1 °C 30.61in /  1036.5hPa West 0.2mph /  0.3km/h 2mph /  3.2km/h 84.2% 0.00in /  0mm 0 W/m2
07:54 38.3 °F /  3.5 °C 34.2 °F /  1.2 °C 30.61in /  1036.5hPa West 2.1mph /  3.4km/h 4mph /  6.4km/h 85% 0.00in /  0mm 0 W/m2
07:59 38.2 °F /  3.4 °C 34.1 °F /  1.2 °C 30.61in /  1036.5hPa West 2.1mph /  3.4km/h 4mph /  6.4km/h 85% 0.00in /  0mm 0 W/m2
08:03 38.2 °F /  3.4 °C 34.1 °F /  1.2 °C 30.61in /  1036.5hPa West 1mph /  1.6km/h 3mph /  4.8km/h 85% 0.00in /  0mm 0 W/m2
08:09 38.1 °F /  3.4 °C 34 °F /  1.1 °C 30.61in /  1036.5hPa West 1.7mph /  2.7km/h 4mph /  6.4km/h 85% 0.00in /  0mm 0 W/m2
08:14 38.3 °F /  3.5 °C 34.2 °F /  1.2 °C 30.62in /  1036.8hPa West 1.3mph /  2.1km/h 3mph /  4.8km/h 85% 0.00in /  0mm 0 W/m2
08:19 38.3 °F /  3.5 °C 34.2 °F /  1.2 °C 30.62in /  1036.8hPa SSW 2.4mph /  3.9km/h 7mph /  11.3km/h 85% 0.00in /  0mm 5 W/m2
08:24 38.1 °F /  3.4 °C 34 °F /  1.1 °C 30.62in /  1036.8hPa SSW 0.4mph /  0.6km/h 3mph /  4.8km/h 85% 0.00in /  0mm 5 W/m2
08:29 38.1 °F /  3.4 °C 34 °F /  1.1 °C 30.62in /  1036.8hPa SSW 0.8mph /  1.3km/h 3mph /  4.8km/h 85% 0.00in /  0mm 7 W/m2
08:34 38.1 °F /  3.4 °C 34 °F /  1.1 °C 30.62in /  1036.8hPa SSW 1.5mph /  2.4km/h 5mph /  8km/h 85% 0.00in /  0mm 9 W/m2
08:39 38.1 °F /  3.4 °C 34 °F /  1.1 °C 30.62in /  1036.8hPa SSW 1.6mph /  2.6km/h 4mph /  6.4km/h 85% 0.00in /  0mm 9 W/m2
08:44 38.1 °F /  3.4 °C 34 °F /  1.1 °C 30.62in /  1036.8hPa SSW 2.4mph /  3.9km/h 5mph /  8km/h 85% 0.00in /  0mm 11 W/m2
08:49 38.1 °F /  3.4 °C 34 °F /  1.1 °C 30.62in /  1036.8hPa SSW 4.1mph /  6.6km/h 6mph /  9.7km/h 85% 0.00in /  0mm 14 W/m2
08:54 38.1 °F /  3.4 °C 34 °F /  1.1 °C 30.62in /  1036.8hPa SSW 2.8mph /  4.5km/h 5mph /  8km/h 85% 0.00in /  0mm 16 W/m2
08:59 38.1 °F /  3.4 °C 34 °F /  1.1 °C 30.62in /  1036.8hPa SSW 1.2mph /  1.9km/h 4mph /  6.4km/h 85% 0.00in /  0mm 18 W/m2
09:04 38.2 °F /  3.4 °C 34.1 °F /  1.2 °C 30.62in /  1036.8hPa SSW 0.2mph /  0.3km/h 2mph /  3.2km/h 85% 0.00in /  0mm 16 W/m2
09:09 38.3 °F /  3.5 °C 34.2 °F /  1.2 °C 30.62in /  1036.8hPa SSW 0.9mph /  1.4km/h 4mph /  6.4km/h 85% 0.00in /  0mm 19 W/m2
09:14 38.2 °F /  3.4 °C 34.1 °F /  1.2 °C 30.62in /  1036.8hPa SSW 2.9mph /  4.7km/h 6mph /  9.7km/h 85% 0.00in /  0mm 21 W/m2
09:19 38.1 °F /  3.4 °C 34 °F /  1.1 °C 30.62in /  1036.8hPa SSW 3.1mph /  5km/h 6mph /  9.7km/h 85% 0.00in /  0mm 21 W/m2
09:24 38.1 °F /  3.4 °C 34 °F /  1.1 °C 30.62in /  1036.8hPa SSW 3.2mph /  5.1km/h 6mph /  9.7km/h 85% 0.00in /  0mm 23 W/m2
09:29 38.1 °F /  3.4 °C 34 °F /  1.1 °C 30.62in /  1036.8hPa SSW 1.7mph /  2.7km/h 5mph /  8km/h 85% 0.00in /  0mm 25 W/m2
09:34 38.1 °F /  3.4 °C 34 °F /  1.1 °C 30.62in /  1036.8hPa SSW 2.7mph /  4.3km/h 6mph /  9.7km/h 85% 0.00in /  0mm 25 W/m2
09:39 38.1 °F /  3.4 °C 34 °F /  1.1 °C 30.62in /  1036.8hPa SSW 3.8mph /  6.1km/h 7mph /  11.3km/h 85% 0.00in /  0mm 28 W/m2
09:44 38.1 °F /  3.4 °C 34 °F /  1.1 °C 30.62in /  1036.8hPa SSW 2.4mph /  3.9km/h 4mph /  6.4km/h 85% 0.00in /  0mm 28 W/m2
09:49 38.1 °F /  3.4 °C 34 °F /  1.1 °C 30.62in /  1036.8hPa SSW 2mph /  3.2km/h 5mph /  8km/h 85% 0.00in /  0mm 30 W/m2
09:54 38.1 °F /  3.4 °C 34 °F /  1.1 °C 30.62in /  1036.8hPa SSW 3.6mph /  5.8km/h 6mph /  9.7km/h 85% 0.00in /  0mm 33 W/m2
09:59 37.9 °F /  3.3 °C 33.8 °F /  1 °C 30.62in /  1036.8hPa SSW 2.9mph /  4.7km/h 8mph /  12.9km/h 85% 0.00in /  0mm 35 W/m2
10:04 38 °F /  3.3 °C 33.8 °F /  1 °C 30.62in /  1036.8hPa SSW 3.2mph /  5.1km/h 6mph /  9.7km/h 85% 0.00in /  0mm 37 W/m2
10:09 38.1 °F /  3.4 °C 34 °F /  1.1 °C 30.62in /  1036.8hPa SSW 3.3mph /  5.3km/h 5mph /  8km/h 85% 0.00in /  0mm 37 W/m2
10:14 38.1 °F /  3.4 °C 34 °F /  1.1 °C 30.62in /  1036.8hPa SSW 2mph /  3.2km/h 5mph /  8km/h 85% 0.00in /  0mm 42 W/m2
10:19 38.1 °F /  3.4 °C 34 °F /  1.1 °C 30.62in /  1036.8hPa SSW 3.4mph /  5.5km/h 5mph /  8km/h 85% 0.00in /  0mm 44 W/m2
10:24 37.9 °F /  3.3 °C 33.8 °F /  1 °C 30.62in /  1036.8hPa SSW 4mph /  6.4km/h 8mph /  12.9km/h 85% 0.00in /  0mm 47 W/m2
10:29 37.9 °F /  3.3 °C 33.8 °F /  1 °C 30.62in /  1036.8hPa SSW 3.2mph /  5.1km/h 7mph /  11.3km/h 85% 0.00in /  0mm 44 W/m2
10:34 37.9 °F /  3.3 °C 33.8 °F /  1 °C 30.62in /  1036.8hPa SSW 3.3mph /  5.3km/h 8mph /  12.9km/h 85% 0.00in /  0mm 44 W/m2
10:39 37.8 °F /  3.2 °C 33.6 °F /  0.9 °C 30.62in /  1036.8hPa SSW 2.8mph /  4.5km/h 6mph /  9.7km/h 85% 0.00in /  0mm 47 W/m2
10:44 37.9 °F /  3.3 °C 33.7 °F /  0.9 °C 30.62in /  1036.8hPa SSW 2.2mph /  3.5km/h 4mph /  6.4km/h 85% 0.00in /  0mm 49 W/m2
10:49 37.8 °F /  3.2 °C 33.6 °F /  0.9 °C 30.62in /  1036.8hPa SSW 2.9mph /  4.7km/h 10mph /  16.1km/h 85% 0.00in /  0mm 49 W/m2
10:54 37.8 °F /  3.2 °C 33.6 °F /  0.9 °C 30.62in /  1036.8hPa SSW 3.2mph /  5.1km/h 7mph /  11.3km/h 85% 0.00in /  0mm 47 W/m2
10:59 37.8 °F /  3.2 °C 33.7 °F /  0.9 °C 30.61in /  1036.5hPa SSW 2.5mph /  4km/h 7mph /  11.3km/h 85% 0.00in /  0mm 53 W/m2
11:04 37.9 °F /  3.3 °C 33.8 °F /  1 °C 30.61in /  1036.5hPa SSW 2.8mph /  4.5km/h 6mph /  9.7km/h 85% 0.00in /  0mm 60 W/m2
11:09 37.9 °F /  3.3 °C 33.8 °F /  1 °C 30.61in /  1036.5hPa SSW 4.5mph /  7.2km/h 7mph /  11.3km/h 85% 0.00in /  0mm 60 W/m2
11:14 37.9 °F /  3.3 °C 33.8 °F /  1 °C 30.61in /  1036.5hPa SSW 2.5mph /  4km/h 5mph /  8km/h 85% 0.00in /  0mm 60 W/m2
11:19 38 °F /  3.3 °C 33.9 °F /  1.1 °C 30.61in /  1036.5hPa SSW 2.4mph /  3.9km/h 6mph /  9.7km/h 85% 0.00in /  0mm 60 W/m2
11:24 38.1 °F /  3.4 °C 34 °F /  1.1 °C 30.61in /  1036.5hPa SSW 4.5mph /  7.2km/h 9mph /  14.5km/h 85% 0.00in /  0mm 63 W/m2
11:29 37.9 °F /  3.3 °C 33.8 °F /  1 °C 30.61in /  1036.5hPa SSW 3.6mph /  5.8km/h 6mph /  9.7km/h 85% 0.00in /  0mm 65 W/m2
11:34 37.9 °F /  3.3 °C 33.8 °F /  1 °C 30.61in /  1036.5hPa SSW 3.7mph /  6km/h 7mph /  11.3km/h 85% 0.00in /  0mm 63 W/m2
11:39 38 °F /  3.3 °C 33.9 °F /  1.1 °C 30.61in /  1036.5hPa SSW 2.5mph /  4km/h 6mph /  9.7km/h 85% 0.00in /  0mm 60 W/m2
11:44 38.1 °F /  3.4 °C 34 °F /  1.1 °C 30.60in /  1036.1hPa SSW 2.7mph /  4.3km/h 5mph /  8km/h 85% 0.00in /  0mm 56 W/m2
11:49 38.1 °F /  3.4 °C 34 °F /  1.1 °C 30.60in /  1036.1hPa SSW 2mph /  3.2km/h 5mph /  8km/h 85% 0.00in /  0mm 62 W/m2
11:54 38.1 °F /  3.4 °C 34 °F /  1.1 °C 30.60in /  1036.1hPa SSW 1.5mph /  2.4km/h 4mph /  6.4km/h 85% 0.00in /  0mm 60 W/m2
11:59 38.1 °F /  3.4 °C 34 °F /  1.1 °C 30.60in /  1036.1hPa SSW 1.7mph /  2.7km/h 4mph /  6.4km/h 85% 0.00in /  0mm 58 W/m2
12:04 38.3 °F /  3.5 °C 34.2 °F /  1.2 °C 30.60in /  1036.1hPa SSW 2.4mph /  3.9km/h 5mph /  8km/h 85% 0.00in /  0mm 58 W/m2
12:09 38.1 °F /  3.4 °C 34 °F /  1.1 °C 30.60in /  1036.1hPa SSW 2.8mph /  4.5km/h 5mph /  8km/h 85% 0.00in /  0mm 60 W/m2
12:14 38.1 °F /  3.4 °C 34 °F /  1.1 °C 30.60in /  1036.1hPa SSW 1.4mph /  2.3km/h 5mph /  8km/h 85% 0.00in /  0mm 58 W/m2
12:19 38.3 °F /  3.5 °C 34.2 °F /  1.2 °C 30.60in /  1036.1hPa SSW 2.4mph /  3.9km/h 5mph /  8km/h 85% 0.00in /  0mm 62 W/m2
12:24 38.3 °F /  3.5 °C 34.2 °F /  1.2 °C 30.60in /  1036.1hPa SSW 2.1mph /  3.4km/h 5mph /  8km/h 85% 0.00in /  0mm 60 W/m2
12:29 38.5 °F /  3.6 °C 34.3 °F /  1.3 °C 30.60in /  1036.1hPa SSW 1.5mph /  2.4km/h 5mph /  8km/h 85% 0.00in /  0mm 60 W/m2
12:34 38.5 °F /  3.6 °C 34.3 °F /  1.3 °C 30.60in /  1036.1hPa SSW 1.2mph /  1.9km/h 4mph /  6.4km/h 85% 0.00in /  0mm 62 W/m2
12:39 38.5 °F /  3.6 °C 34.3 °F /  1.3 °C 30.59in /  1035.8hPa SSW 2.9mph /  4.7km/h 7mph /  11.3km/h 85% 0.00in /  0mm 60 W/m2
12:44 38.5 °F /  3.6 °C 34.3 °F /  1.3 °C 30.59in /  1035.8hPa SSW 4.1mph /  6.6km/h 7mph /  11.3km/h 85% 0.00in /  0mm 62 W/m2
12:49 38.4 °F /  3.6 °C 34.2 °F /  1.2 °C 30.59in /  1035.8hPa SSW 2.8mph /  4.5km/h 6mph /  9.7km/h 85% 0.00in /  0mm 58 W/m2
12:54 38.5 °F /  3.6 °C 34.3 °F /  1.3 °C 30.59in /  1035.8hPa SSW 1.3mph /  2.1km/h 6mph /  9.7km/h 85% 0.00in /  0mm 63 W/m2
12:59 38.5 °F /  3.6 °C 34.3 °F /  1.3 °C 30.58in /  1035.4hPa SSW 3.5mph /  5.6km/h 7mph /  11.3km/h 84.8% 0.00in /  0mm 63 W/m2
13:04 38.1 °F /  3.4 °C 33.9 °F /  1.1 °C 30.58in /  1035.4hPa SSW 1.2mph /  1.9km/h 5mph /  8km/h 84.6% 0.00in /  0mm 62 W/m2
13:09 38.2 °F /  3.4 °C 34.1 °F /  1.2 °C 30.58in /  1035.4hPa SSW 1.6mph /  2.6km/h 3mph /  4.8km/h 85% 0.00in /  0mm 60 W/m2
13:14 38.4 °F /  3.6 °C 34.3 °F /  1.3 °C 30.58in /  1035.4hPa SSW 1.1mph /  1.8km/h 4mph /  6.4km/h 85% 0.00in /  0mm 60 W/m2
13:19 38.5 °F /  3.6 °C 34.3 °F /  1.3 °C 30.58in /  1035.4hPa SSW 2.6mph /  4.2km/h 5mph /  8km/h 85% 0.00in /  0mm 60 W/m2
13:24 38.5 °F /  3.6 °C 34.3 °F /  1.3 °C 30.58in /  1035.4hPa SSW 2.4mph /  3.9km/h 5mph /  8km/h 85% 0.00in /  0mm 60 W/m2
13:29 38.7 °F /  3.7 °C 34.5 °F /  1.4 °C 30.58in /  1035.4hPa SSW 2.1mph /  3.4km/h 5mph /  8km/h 85% 0.00in /  0mm 62 W/m2
13:34 38.7 °F /  3.7 °C 34.5 °F /  1.4 °C 30.57in /  1035.1hPa SSW 2.8mph /  4.5km/h 5mph /  8km/h 85% 0.00in /  0mm 56 W/m2
13:39 38.5 °F /  3.6 °C 34.2 °F /  1.2 °C 30.57in /  1035.1hPa SSW 2.2mph /  3.5km/h 5mph /  8km/h 84.4% 0.00in /  0mm 54 W/m2
13:44 38.5 °F /  3.6 °C 34.3 °F /  1.3 °C 30.57in /  1035.1hPa SSW 2.7mph /  4.3km/h 5mph /  8km/h 85% 0.00in /  0mm 49 W/m2
13:49 38.6 °F /  3.7 °C 34.4 °F /  1.3 °C 30.57in /  1035.1hPa SSW 3.2mph /  5.1km/h 7mph /  11.3km/h 85% 0.00in /  0mm 51 W/m2
13:54 38.7 °F /  3.7 °C 34.5 °F /  1.4 °C 30.57in /  1035.1hPa SSW 3.3mph /  5.3km/h 7mph /  11.3km/h 85% 0.00in /  0mm 47 W/m2
13:59 38.6 °F /  3.7 °C 34.4 °F /  1.3 °C 30.56in /  1034.8hPa SSW 1.3mph /  2.1km/h 6mph /  9.7km/h 84.8% 0.00in /  0mm 46 W/m2
14:04 38.7 °F /  3.7 °C 34.5 °F /  1.4 °C 30.56in /  1034.8hPa SSW 1.2mph /  1.9km/h 3mph /  4.8km/h 85% 0.00in /  0mm 44 W/m2
14:09 38.8 °F /  3.8 °C 34.6 °F /  1.4 °C 30.56in /  1034.8hPa SSW 2mph /  3.2km/h 4mph /  6.4km/h 85% 0.00in /  0mm 42 W/m2
14:14 38.8 °F /  3.8 °C 34.7 °F /  1.5 °C 30.56in /  1034.8hPa SSW 2.7mph /  4.3km/h 6mph /  9.7km/h 85% 0.00in /  0mm 44 W/m2
14:19 38.7 °F /  3.7 °C 34.3 °F /  1.3 °C 30.56in /  1034.8hPa SSW 3.8mph /  6.1km/h 7mph /  11.3km/h 84.2% 0.00in /  0mm 42 W/m2
14:24 38.7 °F /  3.7 °C 34.2 °F /  1.2 °C 30.56in /  1034.8hPa SSW 3mph /  4.8km/h 5mph /  8km/h 84% 0.00in /  0mm 40 W/m2
14:29 38.8 °F /  3.8 °C 34.4 °F /  1.3 °C 30.55in /  1034.4hPa SSW 1.1mph /  1.8km/h 4mph /  6.4km/h 84.4% 0.00in /  0mm 37 W/m2
14:34 38.8 °F /  3.8 °C 34.7 °F /  1.5 °C 30.55in /  1034.4hPa SSW 2mph /  3.2km/h 4mph /  6.4km/h 85% 0.00in /  0mm 35 W/m2
14:39 38.8 °F /  3.8 °C 34.6 °F /  1.4 °C 30.55in /  1034.4hPa SSW 2.6mph /  4.2km/h 5mph /  8km/h 84.8% 0.00in /  0mm 33 W/m2
14:44 38.8 °F /  3.8 °C 34.7 °F /  1.5 °C 30.55in /  1034.4hPa SSW 3.5mph /  5.6km/h 6mph /  9.7km/h 85% 0.00in /  0mm 35 W/m2
14:49 38.8 °F /  3.8 °C 34.7 °F /  1.5 °C 30.55in /  1034.4hPa SSW 2.2mph /  3.5km/h 4mph /  6.4km/h 85% 0.00in /  0mm 37 W/m2
14:54 38.8 °F /  3.8 °C 34.7 °F /  1.5 °C 30.55in /  1034.4hPa SSW 1.3mph /  2.1km/h 4mph /  6.4km/h 85% 0.00in /  0mm 35 W/m2
14:59 38.8 °F /  3.8 °C 34.6 °F /  1.4 °C 30.55in /  1034.4hPa SSW 0.9mph /  1.4km/h 3mph /  4.8km/h 84.8% 0.00in /  0mm 32 W/m2
15:04 39 °F /  3.9 °C 34.9 °F /  1.6 °C 30.55in /  1034.4hPa SSW 0.5mph /  0.8km/h 3mph /  4.8km/h 85% 0.00in /  0mm 28 W/m2
15:09 39 °F /  3.9 °C 34.6 °F /  1.4 °C 30.55in /  1034.4hPa SSW 1mph /  1.6km/h 5mph /  8km/h 84.2% 0.00in /  0mm 28 W/m2
15:14 38.9 °F /  3.8 °C 34.4 °F /  1.3 °C 30.55in /  1034.4hPa SSW 3mph /  4.8km/h 6mph /  9.7km/h 84% 0.00in /  0mm 26 W/m2
15:19 38.8 °F /  3.8 °C 34.5 °F /  1.4 °C 30.54in /  1034.1hPa SSW 3.6mph /  5.8km/h 6mph /  9.7km/h 84.4% 0.00in /  0mm 26 W/m2
15:23 38.8 °F /  3.8 °C 34.7 °F /  1.5 °C 30.54in /  1034.1hPa SSW 2.7mph /  4.3km/h 5mph /  8km/h 85% 0.00in /  0mm 26 W/m2
15:29 38.8 °F /  3.8 °C 34.7 °F /  1.5 °C 30.54in /  1034.1hPa SSW 2.2mph /  3.5km/h 5mph /  8km/h 85% 0.00in /  0mm 25 W/m2
15:34 38.8 °F /  3.8 °C 34.7 °F /  1.5 °C 30.54in /  1034.1hPa SSW 0.9mph /  1.4km/h 4mph /  6.4km/h 85% 0.00in /  0mm 23 W/m2
15:39 39 °F /  3.9 °C 34.9 °F /  1.6 °C 30.54in /  1034.1hPa SSW 0.9mph /  1.4km/h 5mph /  8km/h 85% 0.00in /  0mm 21 W/m2
15:44 39 °F /  3.9 °C 34.9 °F /  1.6 °C 30.54in /  1034.1hPa SSW 1.8mph /  2.9km/h 5mph /  8km/h 85% 0.00in /  0mm 19 W/m2
15:49 39 °F /  3.9 °C 34.8 °F /  1.6 °C 30.54in /  1034.1hPa SSW 3.2mph /  5.1km/h 6mph /  9.7km/h 84.8% 0.00in /  0mm 18 W/m2
15:54 38.8 °F /  3.8 °C 34.5 °F /  1.4 °C 30.54in /  1034.1hPa SSW 2.8mph /  4.5km/h 6mph /  9.7km/h 84.6% 0.00in /  0mm 16 W/m2
15:59 38.8 °F /  3.8 °C 34.3 °F /  1.3 °C 30.54in /  1034.1hPa SSW 0.5mph /  0.8km/h 6mph /  9.7km/h 84% 0.00in /  0mm 12 W/m2
16:04 38.8 °F /  3.8 °C 34.5 °F /  1.4 °C 30.54in /  1034.1hPa SSW 0.4mph /  0.6km/h 3mph /  4.8km/h 84.6% 0.00in /  0mm 11 W/m2
16:09 38.8 °F /  3.8 °C 34.3 °F /  1.3 °C 30.54in /  1034.1hPa SSW 3.1mph /  5km/h 6mph /  9.7km/h 84% 0.00in /  0mm 9 W/m2
16:14 39 °F /  3.9 °C 34.5 °F /  1.4 °C 30.54in /  1034.1hPa SSW 1.3mph /  2.1km/h 5mph /  8km/h 84.2% 0.00in /  0mm 7 W/m2
16:19 39 °F /  3.9 °C 34.7 °F /  1.5 °C 30.54in /  1034.1hPa SSW 2.8mph /  4.5km/h 4mph /  6.4km/h 84.6% 0.00in /  0mm 5 W/m2
16:24 39 °F /  3.9 °C 34.9 °F /  1.6 °C 30.54in /  1034.1hPa SSW 1.8mph /  2.9km/h 4mph /  6.4km/h 85% 0.00in /  0mm 5 W/m2
16:29 39 °F /  3.9 °C 34.9 °F /  1.6 °C 30.54in /  1034.1hPa SSW 1.9mph /  3.1km/h 5mph /  8km/h 85% 0.00in /  0mm 0 W/m2
16:34 39 °F /  3.9 °C 34.9 °F /  1.6 °C 30.54in /  1034.1hPa SSW 2mph /  3.2km/h 4mph /  6.4km/h 85% 0.00in /  0mm 0 W/m2
16:39 39 °F /  3.9 °C 34.9 °F /  1.6 °C 30.54in /  1034.1hPa SSW 2.7mph /  4.3km/h 5mph /  8km/h 85% 0.00in /  0mm 0 W/m2
16:44 39 °F /  3.9 °C 34.9 °F /  1.6 °C 30.54in /  1034.1hPa SSW 2.1mph /  3.4km/h 5mph /  8km/h 85% 0.00in /  0mm 0 W/m2
16:49 39 °F /  3.9 °C 34.9 °F /  1.6 °C 30.54in /  1034.1hPa SSW 1.2mph /  1.9km/h 4mph /  6.4km/h 85% 0.00in /  0mm 0 W/m2
16:54 39.2 °F /  4 °C 35.1 °F /  1.7 °C 30.54in /  1034.1hPa SSW 1.1mph /  1.8km/h 2mph /  3.2km/h 85% 0.00in /  0mm 0 W/m2
16:59 39.2 °F /  4 °C 35.1 °F /  1.7 °C 30.54in /  1034.1hPa SSW 0.8mph /  1.3km/h 3mph /  4.8km/h 85% 0.00in /  0mm 0 W/m2
17:04 39.1 °F /  3.9 °C 35 °F /  1.7 °C 30.54in /  1034.1hPa SSW 2.9mph /  4.7km/h 7mph /  11.3km/h 85% 0.00in /  0mm 0 W/m2
17:09 39 °F /  3.9 °C 34.9 °F /  1.6 °C 30.54in /  1034.1hPa SSW 1.2mph /  1.9km/h 3mph /  4.8km/h 85% 0.00in /  0mm 0 W/m2
17:14 39 °F /  3.9 °C 34.9 °F /  1.6 °C 30.54in /  1034.1hPa SSW 1.3mph /  2.1km/h 4mph /  6.4km/h 85% 0.00in /  0mm 0 W/m2
17:19 39 °F /  3.9 °C 34.9 °F /  1.6 °C 30.54in /  1034.1hPa SSW 2.2mph /  3.5km/h 5mph /  8km/h 85% 0.00in /  0mm 0 W/m2
17:24 39 °F /  3.9 °C 34.9 °F /  1.6 °C 30.54in /  1034.1hPa SSW 0.5mph /  0.8km/h 4mph /  6.4km/h 85% 0.00in /  0mm 0 W/m2
17:29 39 °F /  3.9 °C 34.9 °F /  1.6 °C 30.54in /  1034.1hPa SSW 0.7mph /  1.1km/h 2mph /  3.2km/h 85% 0.00in /  0mm 0 W/m2
17:34 39 °F /  3.9 °C 34.9 °F /  1.6 °C 30.54in /  1034.1hPa SSW 0.7mph /  1.1km/h 2mph /  3.2km/h 85% 0.00in /  0mm 0 W/m2
17:39 39.1 °F /  3.9 °C 35 °F /  1.7 °C 30.54in /  1034.1hPa SSW 2mph /  3.2km/h 4mph /  6.4km/h 85% 0.00in /  0mm 0 W/m2
17:44 39 °F /  3.9 °C 34.9 °F /  1.6 °C 30.54in /  1034.1hPa SSW 0.4mph /  0.6km/h 2mph /  3.2km/h 85% 0.00in /  0mm 0 W/m2
17:49 39.1 °F /  3.9 °C 35 °F /  1.7 °C 30.54in /  1034.1hPa SSW 0.2mph /  0.3km/h 2mph /  3.2km/h 85% 0.00in /  0mm 0 W/m2
17:54 39.3 °F /  4.1 °C 35.1 °F /  1.7 °C 30.54in /  1034.1hPa SSW 0.2mph /  0.3km/h 2mph /  3.2km/h 85% 0.00in /  0mm 0 W/m2
17:59 39.2 °F /  4 °C 35.1 °F /  1.7 °C 30.54in /  1034.1hPa SSW 0.6mph /  1km/h 3mph /  4.8km/h 85% 0.00in /  0mm 0 W/m2
18:04 39.2 °F /  4 °C 35.1 °F /  1.7 °C 30.54in /  1034.1hPa Calm     85% 0.00in /  0mm 0 W/m2
18:09 39.4 °F /  4.1 °C 35.2 °F /  1.8 °C 30.54in /  1034.1hPa Calm     85% 0.00in /  0mm 0 W/m2
18:14 39.3 °F /  4.1 °C 35.1 °F /  1.7 °C 30.54in /  1034.1hPa Calm   1mph /  1.6km/h 85% 0.00in /  0mm 0 W/m2
18:19 39.4 °F /  4.1 °C 35.2 °F /  1.8 °C 30.54in /  1034.1hPa Calm   1mph /  1.6km/h 85% 0.00in /  0mm 0 W/m2
18:24 39.4 °F /  4.1 °C 35.2 °F /  1.8 °C 30.54in /  1034.1hPa Calm     85% 0.00in /  0mm 0 W/m2
18:29 39.4 °F /  4.1 °C 35.2 °F /  1.8 °C 30.54in /  1034.1hPa Calm   1mph /  1.6km/h 85% 0.00in /  0mm 0 W/m2
18:34 39.4 °F /  4.1 °C 35.2 °F /  1.8 °C 30.54in /  1034.1hPa Calm   1mph /  1.6km/h 85% 0.00in /  0mm 0 W/m2
18:39 39.4 °F /  4.1 °C 35.2 °F /  1.8 °C 30.54in /  1034.1hPa Calm     85% 0.00in /  0mm 0 W/m2
18:44 39.4 °F /  4.1 °C 35.2 °F /  1.8 °C 30.54in /  1034.1hPa Calm     85% 0.00in /  0mm 0 W/m2
18:48 39.4 °F /  4.1 °C 35.2 °F /  1.8 °C 30.54in /  1034.1hPa Calm     85% 0.00in /  0mm 0 W/m2
18:53 39.4 °F /  4.1 °C 35.2 °F /  1.8 °C 30.55in /  1034.4hPa Calm     85% 0.00in /  0mm 0 W/m2
18:59 39.5 °F /  4.2 °C 35.6 °F /  2 °C 30.54in /  1034.1hPa Calm     85.6% 0.00in /  0mm 0 W/m2
19:04 39.6 °F /  4.2 °C 35.8 °F /  2.1 °C 30.54in /  1034.1hPa Calm     86% 0.00in /  0mm 0 W/m2
19:09 39.6 °F /  4.2 °C 35.8 °F /  2.1 °C 30.54in /  1034.1hPa SSW 0.2mph /  0.3km/h 2mph /  3.2km/h 86% 0.00in /  0mm 0 W/m2
19:14 39.6 °F /  4.2 °C 35.8 °F /  2.1 °C 30.54in /  1034.1hPa Calm   2mph /  3.2km/h 86% 0.00in /  0mm 0 W/m2
19:19 39.6 °F /  4.2 °C 35.8 °F /  2.1 °C 30.54in /  1034.1hPa Calm     86% 0.00in /  0mm 0 W/m2
19:24 39.6 °F /  4.2 °C 35.8 °F /  2.1 °C 30.54in /  1034.1hPa SSW 0.4mph /  0.6km/h 2mph /  3.2km/h 86% 0.00in /  0mm 0 W/m2
19:29 39.4 °F /  4.1 °C 35.6 °F /  2 °C 30.54in /  1034.1hPa SSW 1.6mph /  2.6km/h 4mph /  6.4km/h 86% 0.00in /  0mm 0 W/m2
19:34 39.4 °F /  4.1 °C 35.6 °F /  2 °C 30.54in /  1034.1hPa SSW 1.6mph /  2.6km/h 3mph /  4.8km/h 86% 0.00in /  0mm 0 W/m2
19:39 39.4 °F /  4.1 °C 35.6 °F /  2 °C 30.54in /  1034.1hPa SSW 0.6mph /  1km/h 2mph /  3.2km/h 86% 0.00in /  0mm 0 W/m2
19:44 39.6 °F /  4.2 °C 35.8 °F /  2.1 °C 30.54in /  1034.1hPa SSW 1.4mph /  2.3km/h 3mph /  4.8km/h 86% 0.00in /  0mm 0 W/m2
19:49 39.6 °F /  4.2 °C 35.8 °F /  2.1 °C 30.54in /  1034.1hPa SSW 0.4mph /  0.6km/h 3mph /  4.8km/h 86% 0.00in /  0mm 0 W/m2
19:54 39.6 °F /  4.2 °C 35.8 °F /  2.1 °C 30.54in /  1034.1hPa Calm   3mph /  4.8km/h 86% 0.00in /  0mm 0 W/m2
19:59 39.4 °F /  4.1 °C 35.6 °F /  2 °C 30.54in /  1034.1hPa SSW 1mph /  1.6km/h 2mph /  3.2km/h 86% 0.00in /  0mm 0 W/m2
20:04 39.5 °F /  4.2 °C 35.7 °F /  2.1 °C 30.54in /  1034.1hPa SSW 1.6mph /  2.6km/h 4mph /  6.4km/h 86% 0.00in /  0mm 0 W/m2
20:09 39.5 °F /  4.2 °C 35.7 °F /  2.1 °C 30.54in /  1034.1hPa SSW 0.2mph /  0.3km/h 3mph /  4.8km/h 86% 0.00in /  0mm 0 W/m2
20:14 39.4 °F /  4.1 °C 35.6 °F /  2 °C 30.53in /  1033.7hPa SSW 0.6mph /  1km/h 3mph /  4.8km/h 86% 0.00in /  0mm 0 W/m2
20:19 39.5 °F /  4.2 °C 35.7 °F /  2.1 °C 30.53in /  1033.7hPa SSW 0.8mph /  1.3km/h 3mph /  4.8km/h 86% 0.00in /  0mm 0 W/m2
20:24 39.6 °F /  4.2 °C 35.8 °F /  2.1 °C 30.53in /  1033.7hPa Calm   1mph /  1.6km/h 86% 0.00in /  0mm 0 W/m2
20:29 39.6 °F /  4.2 °C 35.8 °F /  2.1 °C 30.53in /  1033.7hPa Calm   1mph /  1.6km/h 86% 0.00in /  0mm 0 W/m2
20:34 39.6 °F /  4.2 °C 35.8 °F /  2.1 °C 30.53in /  1033.7hPa Calm   1mph /  1.6km/h 86% 0.00in /  0mm 0 W/m2
20:39 39.4 °F /  4.1 °C 35.6 °F /  2 °C 30.53in /  1033.7hPa Calm     86% 0.00in /  0mm 0 W/m2
20:44 39.4 °F /  4.1 °C 35.6 °F /  2 °C 30.53in /  1033.7hPa Calm   2mph /  3.2km/h 86% 0.00in /  0mm 0 W/m2
20:49 39.5 °F /  4.2 °C 35.7 °F /  2.1 °C 30.53in /  1033.7hPa SSW 0.4mph /  0.6km/h 2mph /  3.2km/h 86% 0.00in /  0mm 0 W/m2
20:54 39.6 °F /  4.2 °C 35.8 °F /  2.1 °C 30.53in /  1033.7hPa SSW 0.6mph /  1km/h 2mph /  3.2km/h 86% 0.00in /  0mm 0 W/m2
20:59 39.6 °F /  4.2 °C 35.8 °F /  2.1 °C 30.53in /  1033.7hPa SSW 0.5mph /  0.8km/h 2mph /  3.2km/h 86% 0.00in /  0mm 0 W/m2
21:04 39.6 °F /  4.2 °C 35.8 °F /  2.1 °C 30.53in /  1033.7hPa SSW 1.1mph /  1.8km/h 3mph /  4.8km/h 86% 0.00in /  0mm 0 W/m2
21:09 39.6 °F /  4.2 °C 35.8 °F /  2.1 °C 30.53in /  1033.7hPa SSW 0.5mph /  0.8km/h 3mph /  4.8km/h 86% 0.00in /  0mm 0 W/m2
21:14 39.6 °F /  4.2 °C 35.8 °F /  2.1 °C 30.53in /  1033.7hPa SSW 0.2mph /  0.3km/h 1mph /  1.6km/h 86% 0.00in /  0mm 0 W/m2
21:19 39.6 °F /  4.2 °C 35.8 °F /  2.1 °C 30.53in /  1033.7hPa SSW 0.2mph /  0.3km/h 2mph /  3.2km/h 86% 0.00in /  0mm 0 W/m2
21:24 39.6 °F /  4.2 °C 35.8 °F /  2.1 °C 30.53in /  1033.7hPa SSW 1.7mph /  2.7km/h 3mph /  4.8km/h 86% 0.00in /  0mm 0 W/m2
21:29 39.6 °F /  4.2 °C 35.8 °F /  2.1 °C 30.53in /  1033.7hPa SSW 1.1mph /  1.8km/h 3mph /  4.8km/h 86% 0.00in /  0mm 0 W/m2
21:34 39.6 °F /  4.2 °C 35.8 °F /  2.1 °C 30.53in /  1033.7hPa SSW 1.2mph /  1.9km/h 3mph /  4.8km/h 86% 0.00in /  0mm 0 W/m2
21:39 39.6 °F /  4.2 °C 35.8 °F /  2.1 °C 30.53in /  1033.7hPa SSW 2.8mph /  4.5km/h 4mph /  6.4km/h 86% 0.00in /  0mm 0 W/m2
21:44 39.6 °F /  4.2 °C 35.8 °F /  2.1 °C 30.53in /  1033.7hPa SSW 0.7mph /  1.1km/h 4mph /  6.4km/h 86% 0.00in /  0mm 0 W/m2
21:49 39.6 °F /  4.2 °C 35.8 °F /  2.1 °C 30.53in /  1033.7hPa Calm   2mph /  3.2km/h 86% 0.00in /  0mm 0 W/m2
21:54 39.6 °F /  4.2 °C 35.8 °F /  2.1 °C 30.53in /  1033.7hPa SSW 1.1mph /  1.8km/h 4mph /  6.4km/h 86% 0.00in /  0mm 0 W/m2
21:59 39.6 °F /  4.2 °C 35.9 °F /  2.2 °C 30.53in /  1033.7hPa SSW 0.4mph /  0.6km/h 2mph /  3.2km/h 86% 0.00in /  0mm 0 W/m2
22:04 39.6 °F /  4.2 °C 35.8 °F /  2.1 °C 30.53in /  1033.7hPa SSW 1.2mph /  1.9km/h 3mph /  4.8km/h 86% 0.00in /  0mm 0 W/m2
22:09 39.6 °F /  4.2 °C 35.8 °F /  2.1 °C 30.53in /  1033.7hPa SSW 1.8mph /  2.9km/h 3mph /  4.8km/h 86% 0.00in /  0mm 0 W/m2
22:14 39.6 °F /  4.2 °C 35.8 °F /  2.1 °C 30.53in /  1033.7hPa SSW 0.4mph /  0.6km/h 3mph /  4.8km/h 86% 0.00in /  0mm 0 W/m2
22:19 39.6 °F /  4.2 °C 35.9 °F /  2.2 °C 30.53in /  1033.7hPa SSW 0.4mph /  0.6km/h 2mph /  3.2km/h 86% 0.00in /  0mm 0 W/m2
22:24 39.7 °F /  4.3 °C 36 °F /  2.2 °C 30.53in /  1033.7hPa SSW 1.1mph /  1.8km/h 4mph /  6.4km/h 86% 0.00in /  0mm 0 W/m2
22:29 39.7 °F /  4.3 °C 36 °F /  2.2 °C 30.53in /  1033.7hPa SSW 0.9mph /  1.4km/h 3mph /  4.8km/h 86% 0.00in /  0mm 0 W/m2
22:34 39.7 °F /  4.3 °C 35.9 °F /  2.2 °C 30.53in /  1033.7hPa SSW 0.8mph /  1.3km/h 3mph /  4.8km/h 86% 0.00in /  0mm 0 W/m2
22:39 39.6 °F /  4.2 °C 35.8 °F /  2.1 °C 30.53in /  1033.7hPa SSW 0.2mph /  0.3km/h 3mph /  4.8km/h 86% 0.00in /  0mm 0 W/m2
22:44 39.6 °F /  4.2 °C 35.8 °F /  2.1 °C 30.53in /  1033.7hPa SSW 1.7mph /  2.7km/h 4mph /  6.4km/h 86% 0.00in /  0mm 0 W/m2
22:49 39.7 °F /  4.3 °C 36 °F /  2.2 °C 30.53in /  1033.7hPa SSW 1mph /  1.6km/h 3mph /  4.8km/h 86% 0.00in /  0mm 0 W/m2
22:54 39.7 °F /  4.3 °C 36 °F /  2.2 °C 30.53in /  1033.7hPa SSW 0.6mph /  1km/h 4mph /  6.4km/h 86% 0.00in /  0mm 0 W/m2
22:59 39.7 °F /  4.3 °C 36 °F /  2.2 °C 30.53in /  1033.7hPa SSW 1.6mph /  2.6km/h 4mph /  6.4km/h 86% 0.00in /  0mm 0 W/m2
23:04 39.7 °F /  4.3 °C 36 °F /  2.2 °C 30.53in /  1033.7hPa SSW 1.7mph /  2.7km/h 5mph /  8km/h 86% 0.00in /  0mm 0 W/m2
23:09 39.7 °F /  4.3 °C 36 °F /  2.2 °C 30.53in /  1033.7hPa SSW 1.7mph /  2.7km/h 4mph /  6.4km/h 86% 0.00in /  0mm 0 W/m2
23:14 39.7 °F /  4.3 °C 36 °F /  2.2 °C 30.53in /  1033.7hPa SSW 1.8mph /  2.9km/h 4mph /  6.4km/h 86% 0.00in /  0mm 0 W/m2
23:19 39.7 °F /  4.3 °C 36 °F /  2.2 °C 30.53in /  1033.7hPa SSW 0.8mph /  1.3km/h 5mph /  8km/h 86% 0.00in /  0mm 0 W/m2
23:24 39.8 °F /  4.3 °C 36.1 °F /  2.3 °C 30.53in /  1033.7hPa SSW 1.7mph /  2.7km/h 5mph /  8km/h 86% 0.00in /  0mm 0 W/m2
23:29 39.9 °F /  4.4 °C 36.1 °F /  2.3 °C 30.53in /  1033.7hPa SSW 1.3mph /  2.1km/h 5mph /  8km/h 86% 0.00in /  0mm 0 W/m2
23:34 39.9 °F /  4.4 °C 36.1 °F /  2.3 °C 30.53in /  1033.7hPa SSW 1.4mph /  2.3km/h 4mph /  6.4km/h 86% 0.00in /  0mm 0 W/m2
23:39 39.9 °F /  4.4 °C 36.1 °F /  2.3 °C 30.53in /  1033.7hPa SSW 1.7mph /  2.7km/h 4mph /  6.4km/h 86% 0.00in /  0mm 0 W/m2
23:44 39.9 °F /  4.4 °C 36.1 °F /  2.3 °C 30.53in /  1033.7hPa SSW 0.4mph /  0.6km/h 3mph /  4.8km/h 86% 0.00in /  0mm 0 W/m2
23:49 39.9 °F /  4.4 °C 36.1 °F /  2.3 °C 30.53in /  1033.7hPa SSW 1.6mph /  2.6km/h 3mph /  4.8km/h 86% 0.00in /  0mm 0 W/m2
23:54 39.7 °F /  4.3 °C 36 °F /  2.2 °C 30.52in /  1033.4hPa SSW 2.2mph /  3.5km/h 4mph /  6.4km/h 86% 0.00in /  0mm 0 W/m2
23:59 39.8 °F /  4.3 °C 36 °F /  2.2 °C 30.52in /  1033.4hPa SSW 1.7mph /  2.7km/h 4mph /  6.4km/h 86% 0.00in /  0mm 0 W/m2
Bath Spa Weather
Compliments of Weather Underground - 2 mb